Time;durP1;ratioP1;P1;durP2;ratioP2;P2;SDS_P1;SDS_P2;PMS_P1;PMS_P2;Temp;Humidity;BMP_temperature;BMP_pressure;BME280_temperature;BME280_humidity;BME280_pressure;Samples;Min_cycle;Max_cycle;Signal;HPM_P1;HPM_P2
2022/01/04 00:03:02;;;;;;;;;;;9.20;99.90;;;;;;8399991;28;19932;-71
2022/01/04 00:07:04;;;;;;;;;;;9.20;99.90;;;;;;8409952;28;20015;-71
2022/01/04 00:11:14;;;;;;;;;;;9.20;99.90;;;;;;8409385;28;20445;-70
2022/01/04 00:15:16;;;;;;;;;;;9.20;99.90;;;;;;8390690;28;20331;-70
2022/01/04 00:19:18;;;;;;;;;;;9.20;99.90;;;;;;8409886;28;19924;-71
2022/01/04 00:23:20;;;;;;;;;;;9.20;99.90;;;;;;8405199;28;19924;-71
2022/01/04 00:27:22;;;;;;;;;;;9.20;99.90;;;;;;8409636;28;20027;-70
2022/01/04 00:31:23;;;;;;;;;;;9.20;99.90;;;;;;8403891;28;19928;-70
2022/01/04 00:35:26;;;;;;;;;;;9.20;99.90;;;;;;8406871;28;19924;-70
2022/01/04 00:39:27;;;;;;;;;;;9.20;99.90;;;;;;8407097;28;19944;-71
2022/01/04 00:43:29;;;;;;;;;;;9.30;99.90;;;;;;8401747;28;19924;-70
2022/01/04 00:49:09;;;;;;;;;;;9.30;99.90;;;;;;8405143;28;19924;-70
2022/01/04 00:52:05;;;;;;;;;;;9.30;99.90;;;;;;8408273;28;19924;-70
2022/01/04 00:56:07;;;;;;;;;;;9.30;99.90;;;;;;8414156;28;19924;-71
2022/01/04 01:00:10;;;;;;;;;;;9.30;99.90;;;;;;8413111;28;19977;-70
2022/01/04 01:04:13;;;;;;;;;;;9.30;99.90;;;;;;8422326;28;19928;-70
2022/01/04 01:08:14;;;;;;;;;;;9.30;99.90;;;;;;8396887;28;19939;-70
2022/01/04 01:12:16;;;;;;;;;;;9.30;99.90;;;;;;8397220;28;19990;-70
2022/01/04 01:16:18;;;;;;;;;;;9.30;99.90;;;;;;8400689;28;19970;-71
2022/01/04 01:20:20;;;;;;;;;;;9.20;99.90;;;;;;8421177;28;19942;-70
2022/01/04 01:24:21;;;;;;;;;;;9.20;99.90;;;;;;8403138;28;20011;-71
2022/01/04 01:28:23;;;;;;;;;;;9.20;99.90;;;;;;8406122;28;19924;-71
2022/01/04 01:32:25;;;;;;;;;;;9.10;99.90;;;;;;8408670;28;19928;-70
2022/01/04 01:36:27;;;;;;;;;;;9.10;99.90;;;;;;8425253;28;19924;-70
2022/01/04 01:40:29;;;;;;;;;;;9.10;99.90;;;;;;8416770;28;20362;-70
2022/01/04 01:44:31;;;;;;;;;;;9.00;99.90;;;;;;8417267;28;20011;-71
2022/01/04 01:48:33;;;;;;;;;;;9.00;99.90;;;;;;8405751;28;19924;-71
2022/01/04 01:52:35;;;;;;;;;;;9.00;99.90;;;;;;8400198;28;19928;-71
2022/01/04 01:56:36;;;;;;;;;;;8.90;99.90;;;;;;8418355;28;20067;-70
2022/01/04 02:00:38;;;;;;;;;;;9.00;99.90;;;;;;8397112;28;19924;-70
2022/01/04 02:04:40;;;;;;;;;;;9.00;99.90;;;;;;8417158;28;19970;-71
2022/01/04 02:08:41;;;;;;;;;;;9.00;99.90;;;;;;8426094;28;19975;-71
2022/01/04 02:12:46;;;;;;;;;;;9.10;99.90;;;;;;8424655;28;19924;-70
2022/01/04 02:16:48;;;;;;;;;;;9.10;99.90;;;;;;8421225;28;20324;-71
2022/01/04 02:20:50;;;;;;;;;;;9.00;99.90;;;;;;8426735;28;19924;-71
2022/01/04 02:24:51;;;;;;;;;;;9.00;99.90;;;;;;8419803;28;19928;-70
2022/01/04 02:28:53;;;;;;;;;;;9.00;99.90;;;;;;8417794;28;20326;-70
2022/01/04 02:32:54;;;;;;;;;;;9.00;99.90;;;;;;8397793;28;20295;-70
2022/01/04 02:36:57;;;;;;;;;;;9.00;99.90;;;;;;8425730;28;20463;-71
2022/01/04 02:40:59;;;;;;;;;;;9.00;99.90;;;;;;8406160;28;19925;-70
2022/01/04 02:45:01;;;;;;;;;;;9.00;99.90;;;;;;8406381;28;19931;-70
2022/01/04 02:49:06;;;;;;;;;;;9.00;99.90;;;;;;8425899;28;19935;-70
2022/01/04 02:53:08;;;;;;;;;;;8.90;99.90;;;;;;8414238;28;19931;-71
2022/01/04 02:57:09;;;;;;;;;;;8.90;99.90;;;;;;8390866;28;19973;-71
2022/01/04 03:01:11;;;;;;;;;;;8.90;99.90;;;;;;8401397;28;20074;-71
2022/01/04 03:05:12;;;;;;;;;;;8.90;99.90;;;;;;8408020;28;19928;-70
2022/01/04 03:09:15;;;;;;;;;;;8.80;99.90;;;;;;8425540;28;20315;-71
2022/01/04 03:13:17;;;;;;;;;;;8.80;99.90;;;;;;8416743;28;19924;-71
2022/01/04 03:17:18;;;;;;;;;;;8.80;99.90;;;;;;8403746;28;19975;-70
2022/01/04 03:21:20;;;;;;;;;;;8.80;99.90;;;;;;8426351;28;19924;-70
2022/01/04 03:25:22;;;;;;;;;;;8.80;99.90;;;;;;8410866;28;19928;-70
2022/01/04 03:29:24;;;;;;;;;;;8.80;99.90;;;;;;8412230;28;20050;-70
2022/01/04 03:33:26;;;;;;;;;;;8.80;99.90;;;;;;8431218;28;19935;-71
2022/01/04 03:37:27;;;;;;;;;;;8.80;99.90;;;;;;8410025;28;20356;-70
2022/01/04 03:41:29;;;;;;;;;;;8.80;99.90;;;;;;8421425;28;19924;-70
2022/01/04 03:45:30;;;;;;;;;;;8.80;99.90;;;;;;8421742;28;19928;-71
2022/01/04 03:49:32;;;;;;;;;;;8.80;99.90;;;;;;8431147;28;20268;-70
2022/01/04 03:53:34;;;;;;;;;;;8.80;99.90;;;;;;8430767;28;20430;-71
2022/01/04 03:57:36;;;;;;;;;;;8.80;99.90;;;;;;8428689;28;19928;-70
2022/01/04 04:01:38;;;;;;;;;;;8.80;99.90;;;;;;8407405;28;20360;-70
2022/01/04 04:05:39;;;;;;;;;;;8.80;99.90;;;;;;8418635;28;19988;-71
2022/01/04 04:09:41;;;;;;;;;;;8.70;99.90;;;;;;8412707;28;19979;-71
2022/01/04 04:13:43;;;;;;;;;;;8.70;99.90;;;;;;8426307;28;19935;-70
2022/01/04 04:17:45;;;;;;;;;;;8.80;99.90;;;;;;8398580;28;19981;-71
2022/01/04 04:21:47;;;;;;;;;;;8.80;99.90;;;;;;8408975;28;19924;-70
2022/01/04 04:25:48;;;;;;;;;;;8.80;99.90;;;;;;8404147;28;19924;-70
2022/01/04 04:29:50;;;;;;;;;;;8.80;99.90;;;;;;8422384;28;19928;-70
2022/01/04 04:33:51;;;;;;;;;;;8.80;99.90;;;;;;8427825;28;19932;-70
2022/01/04 04:37:53;;;;;;;;;;;8.80;99.90;;;;;;8408997;28;19999;-70
2022/01/04 04:41:54;;;;;;;;;;;8.80;99.90;;;;;;8428190;28;19947;-71
2022/01/04 04:45:56;;;;;;;;;;;8.70;99.90;;;;;;8404648;28;19932;-71
2022/01/04 04:49:58;;;;;;;;;;;8.70;99.90;;;;;;8422530;28;20379;-71
2022/01/04 04:54:00;;;;;;;;;;;8.70;99.90;;;;;;8422050;28;19971;-71
2022/01/04 04:58:02;;;;;;;;;;;8.80;99.90;;;;;;8422423;28;19924;-71
2022/01/04 05:02:04;;;;;;;;;;;8.70;99.90;;;;;;8404732;28;20002;-70
2022/01/04 05:06:06;;;;;;;;;;;8.70;99.90;;;;;;8407758;28;20001;-70
2022/01/04 05:10:08;;;;;;;;;;;8.70;99.90;;;;;;8410763;28;19931;-71
2022/01/04 05:14:10;;;;;;;;;;;8.70;99.90;;;;;;8424436;28;19927;-70
2022/01/04 05:18:11;;;;;;;;;;;8.70;99.90;;;;;;8421998;28;19924;-71
2022/01/04 05:22:13;;;;;;;;;;;8.70;99.90;;;;;;8408399;28;19960;-70
2022/01/04 05:26:14;;;;;;;;;;;8.60;99.90;;;;;;8426482;28;19968;-70
2022/01/04 05:30:16;;;;;;;;;;;8.50;99.90;;;;;;8411593;28;19933;-71
2022/01/04 05:34:18;;;;;;;;;;;8.50;99.90;;;;;;8402423;28;19935;-70
2022/01/04 05:38:19;;;;;;;;;;;8.50;99.90;;;;;;8417511;28;19975;-70
2022/01/04 05:42:21;;;;;;;;;;;8.50;99.90;;;;;;8420977;28;20400;-70
2022/01/04 05:46:22;;;;;;;;;;;8.50;99.90;;;;;;8419905;28;19999;-71
2022/01/04 05:50:24;;;;;;;;;;;8.50;99.90;;;;;;8406006;28;19978;-71
2022/01/04 05:54:26;;;;;;;;;;;8.50;99.90;;;;;;8421823;28;20295;-71
2022/01/04 05:58:27;;;;;;;;;;;8.50;99.90;;;;;;8408856;28;19924;-70
2022/01/04 06:02:29;;;;;;;;;;;8.50;99.90;;;;;;8411162;28;20276;-70
2022/01/04 06:06:30;;;;;;;;;;;8.50;99.90;;;;;;8392660;28;19925;-70
2022/01/04 06:10:38;;;;;;;;;;;8.50;99.90;;;;;;8403785;28;20471;-70
2022/01/04 06:14:52;;;;;;;;;;;8.50;99.90;;;;;;8421429;28;20374;-70
2022/01/04 06:18:53;;;;;;;;;;;8.50;99.90;;;;;;8416919;28;19959;-70
2022/01/04 06:22:55;;;;;;;;;;;8.50;99.90;;;;;;8416575;28;19931;-70
2022/01/04 06:26:57;;;;;;;;;;;8.60;99.90;;;;;;8426378;28;20018;-71
2022/01/04 06:30:58;;;;;;;;;;;8.50;99.90;;;;;;8420148;28;19924;-71
2022/01/04 06:35:00;;;;;;;;;;;8.50;99.90;;;;;;8403635;28;19947;-70
2022/01/04 06:39:02;;;;;;;;;;;8.40;99.90;;;;;;8425712;28;19950;-70
2022/01/04 06:43:04;;;;;;;;;;;8.40;99.90;;;;;;8426159;28;20413;-70
2022/01/04 06:47:05;;;;;;;;;;;8.40;99.90;;;;;;8418015;28;19935;-71
2022/01/04 06:51:07;;;;;;;;;;;8.40;99.90;;;;;;8418412;28;19978;-70
2022/01/04 06:55:09;;;;;;;;;;;8.40;99.90;;;;;;8387281;28;19928;-70
2022/01/04 06:59:11;;;;;;;;;;;8.40;99.90;;;;;;8424335;28;19924;-70
2022/01/04 07:03:13;;;;;;;;;;;8.40;99.90;;;;;;8421818;28;20031;-70
2022/01/04 07:07:14;;;;;;;;;;;8.30;99.90;;;;;;8416719;28;19924;-70
2022/01/04 07:11:16;;;;;;;;;;;8.40;99.90;;;;;;8403665;28;19966;-70
2022/01/04 07:15:18;;;;;;;;;;;8.40;99.90;;;;;;8420465;28;20405;-70
2022/01/04 07:19:19;;;;;;;;;;;8.40;99.90;;;;;;8416147;28;19962;-71
2022/01/04 07:23:22;;;;;;;;;;;8.40;99.90;;;;;;8416741;28;19971;-71
2022/01/04 07:27:24;;;;;;;;;;;8.40;99.90;;;;;;8393454;28;19931;-71
2022/01/04 07:31:25;;;;;;;;;;;8.40;99.90;;;;;;8412622;28;19963;-71
2022/01/04 07:35:27;;;;;;;;;;;8.50;99.90;;;;;;8407158;28;20439;-71
2022/01/04 07:39:29;;;;;;;;;;;8.50;99.90;;;;;;8393372;28;20295;-70
2022/01/04 07:43:32;;;;;;;;;;;8.50;99.90;;;;;;8412422;28;19958;-70
2022/01/04 07:47:33;;;;;;;;;;;8.40;99.90;;;;;;8390679;28;19963;-70
2022/01/04 07:51:35;;;;;;;;;;;8.40;99.90;;;;;;8402438;28;19935;-70
2022/01/04 07:55:37;;;;;;;;;;;8.40;99.90;;;;;;8399048;28;19925;-71
2022/01/04 07:59:39;;;;;;;;;;;8.40;99.90;;;;;;8399033;28;19964;-70
2022/01/04 08:03:41;;;;;;;;;;;8.40;99.90;;;;;;8394765;28;20672;-71
2022/01/04 08:07:43;;;;;;;;;;;8.40;99.90;;;;;;8386921;28;20005;-71
2022/01/04 08:11:44;;;;;;;;;;;8.40;99.90;;;;;;8390361;28;19955;-70
2022/01/04 08:15:46;;;;;;;;;;;8.50;99.90;;;;;;8389974;28;19929;-71
2022/01/04 08:19:51;;;;;;;;;;;8.50;99.90;;;;;;8381456;28;19920;-71
2022/01/04 08:23:52;;;;;;;;;;;8.50;99.90;;;;;;8399496;28;19987;-70
2022/01/04 08:27:54;;;;;;;;;;;8.50;99.90;;;;;;8397210;28;19947;-70
2022/01/04 08:31:56;;;;;;;;;;;8.50;99.90;;;;;;8390666;28;19924;-71
2022/01/04 08:35:57;;;;;;;;;;;8.40;99.90;;;;;;8396193;28;19927;-71
2022/01/04 08:40:01;;;;;;;;;;;8.40;99.90;;;;;;8401501;28;19941;-71
2022/01/04 08:44:02;;;;;;;;;;;8.40;99.90;;;;;;8392947;28;19931;-71
2022/01/04 08:48:04;;;;;;;;;;;8.30;99.90;;;;;;8366580;28;20484;-70
2022/01/04 08:52:06;;;;;;;;;;;8.30;99.90;;;;;;8367076;28;19928;-71
2022/01/04 08:56:08;;;;;;;;;;;8.30;99.90;;;;;;8369361;28;20012;-71
2022/01/04 09:00:10;;;;;;;;;;;8.30;99.90;;;;;;8368200;28;19960;-71
2022/01/04 09:04:12;;;;;;;;;;;8.30;99.90;;;;;;8362203;28;19932;-71
2022/01/04 09:08:13;;;;;;;;;;;8.30;99.90;;;;;;8369763;28;19964;-71
2022/01/04 09:12:16;;;;;;;;;;;8.30;99.90;;;;;;8362440;28;19925;-71
2022/01/04 09:20:19;;;;;;;;;;;8.30;99.90;;;;;;8365870;28;19920;-70
2022/01/04 09:24:21;;;;;;;;;;;8.30;99.90;;;;;;8392215;28;20372;-71
2022/01/04 09:28:23;;;;;;;;;;;8.30;99.90;;;;;;8363377;28;19963;-71
2022/01/04 09:32:24;;;;;;;;;;;8.30;99.90;;;;;;8363664;28;20047;-71
2022/01/04 09:36:27;;;;;;;;;;;8.20;99.90;;;;;;8361907;28;19931;-70
2022/01/04 09:40:29;;;;;;;;;;;8.20;99.90;;;;;;8364284;28;19924;-70
2022/01/04 09:44:30;;;;;;;;;;;8.20;99.90;;;;;;8370077;28;20372;-70
2022/01/04 09:48:32;;;;;;;;;;;8.20;99.90;;;;;;8398364;28;19924;-70
2022/01/04 09:52:35;;;;;;;;;;;8.20;99.90;;;;;;8402279;28;19960;-70
2022/01/04 09:56:36;;;;;;;;;;;8.30;99.90;;;;;;8386987;28;20244;-70
2022/01/04 10:00:38;;;;;;;;;;;8.30;99.90;;;;;;8395393;28;19927;-71
2022/01/04 10:04:40;;;;;;;;;;;8.30;99.90;;;;;;8397414;28;19920;-70
2022/01/04 10:08:50;;;;;;;;;;;8.30;99.90;;;;;;8381744;28;20383;-70
2022/01/04 10:12:53;;;;;;;;;;;8.30;99.90;;;;;;8396781;28;20035;-70
2022/01/04 10:16:56;;;;;;;;;;;8.40;99.90;;;;;;8397005;28;19972;-71
2022/01/04 10:20:58;;;;;;;;;;;8.50;99.90;;;;;;8378287;28;20402;-70
2022/01/04 10:25:03;;;;;;;;;;;8.50;99.90;;;;;;8383817;28;19921;-70
2022/01/04 10:29:20;;;;;;;;;;;8.50;99.90;;;;;;8390790;28;20362;-71
2022/01/04 10:33:22;;;;;;;;;;;8.60;99.90;;;;;;8405593;28;19970;-71
2022/01/04 10:37:36;;;;;;;;;;;8.60;99.90;;;;;;8399876;28;20371;-71
2022/01/04 10:41:37;;;;;;;;;;;8.50;99.90;;;;;;8404836;28;19923;-70
2022/01/04 10:45:40;;;;;;;;;;;8.50;99.90;;;;;;8392861;28;19972;-70
2022/01/04 10:49:42;;;;;;;;;;;8.40;99.90;;;;;;8393397;28;19935;-71
2022/01/04 10:53:45;;;;;;;;;;;8.30;99.90;;;;;;8399542;28;19973;-70
2022/01/04 10:57:47;;;;;;;;;;;8.30;99.90;;;;;;8398743;28;20364;-71
2022/01/04 11:01:50;;;;;;;;;;;8.30;99.90;;;;;;8384798;28;19944;-70
2022/01/04 11:05:53;;;;;;;;;;;8.30;99.90;;;;;;8383454;28;20180;-70
2022/01/04 11:09:54;;;;;;;;;;;8.30;99.90;;;;;;8387399;28;19921;-71
2022/01/04 11:13:57;;;;;;;;;;;8.30;99.90;;;;;;8387547;28;19924;-70
2022/01/04 11:17:58;;;;;;;;;;;8.30;99.90;;;;;;8391750;28;19974;-70
2022/01/04 11:22:03;;;;;;;;;;;8.40;99.90;;;;;;8394146;28;19935;-70
2022/01/04 11:26:05;;;;;;;;;;;8.40;99.90;;;;;;8391148;28;19920;-70
2022/01/04 11:30:12;;;;;;;;;;;8.50;99.90;;;;;;8392578;28;19947;-70
2022/01/04 11:34:16;;;;;;;;;;;8.50;99.90;;;;;;8397513;28;19920;-70
2022/01/04 11:38:31;;;;;;;;;;;8.60;99.90;;;;;;8393522;28;20068;-70
2022/01/04 11:42:37;;;;;;;;;;;8.60;99.90;;;;;;8390585;28;19927;-70
2022/01/04 11:46:39;;;;;;;;;;;8.60;99.90;;;;;;8398553;28;19928;-70
2022/01/04 11:50:41;;;;;;;;;;;8.60;99.90;;;;;;8398176;28;20061;-70
2022/01/04 11:54:42;;;;;;;;;;;8.50;99.90;;;;;;8398945;28;19967;-70
2022/01/04 11:58:45;;;;;;;;;;;8.50;99.90;;;;;;8398382;28;20002;-70
2022/01/04 12:03:00;;;;;;;;;;;8.50;99.90;;;;;;8394037;28;20356;-70
2022/01/04 12:07:01;;;;;;;;;;;8.50;99.90;;;;;;8401031;28;19928;-70
2022/01/04 12:11:03;;;;;;;;;;;8.60;99.90;;;;;;8389695;28;20698;-70
2022/01/04 12:15:24;;;;;;;;;;;8.60;99.90;;;;;;8382582;28;19928;-70
2022/01/04 12:19:44;;;;;;;;;;;8.60;99.90;;;;;;8376486;28;19928;-71
2022/01/04 12:23:48;;;;;;;;;;;8.60;99.90;;;;;;8383708;28;19931;-70
2022/01/04 12:28:13;;;;;;;;;;;8.60;99.90;;;;;;8393491;28;19924;-70
2022/01/04 12:32:23;;;;;;;;;;;8.60;99.90;;;;;;8395206;28;20280;-70
2022/01/04 12:36:35;;;;;;;;;;;8.60;99.90;;;;;;8390165;28;20356;-71
2022/01/04 12:40:36;;;;;;;;;;;8.60;99.90;;;;;;8390687;28;19994;-70
2022/01/04 12:44:38;;;;;;;;;;;8.70;99.90;;;;;;8393052;28;19974;-70
2022/01/04 12:48:47;;;;;;;;;;;8.60;99.90;;;;;;8396709;28;19971;-71
2022/01/04 12:52:50;;;;;;;;;;;8.50;99.90;;;;;;8384445;28;19924;-70
2022/01/04 12:57:05;;;;;;;;;;;8.50;99.90;;;;;;8395404;28;20264;-71
2022/01/04 13:01:07;;;;;;;;;;;8.50;99.90;;;;;;8377140;28;19926;-70
2022/01/04 13:05:11;;;;;;;;;;;8.40;99.90;;;;;;8383202;28;20015;-70
2022/01/04 13:09:16;;;;;;;;;;;8.40;99.90;;;;;;8384991;28;20371;-70
2022/01/04 13:13:23;;;;;;;;;;;8.40;99.90;;;;;;8384426;28;20086;-71
2022/01/04 13:17:26;;;;;;;;;;;8.30;99.90;;;;;;8367371;28;19960;-71
2022/01/04 13:21:28;;;;;;;;;;;8.20;99.90;;;;;;8370383;28;19920;-70
2022/01/04 13:25:30;;;;;;;;;;;8.20;99.90;;;;;;8386459;28;19920;-71
2022/01/04 13:29:31;;;;;;;;;;;8.20;99.90;;;;;;8385048;28;19967;-70
2022/01/04 13:33:36;;;;;;;;;;;8.10;99.90;;;;;;8382925;28;19936;-71
2022/01/04 13:37:39;;;;;;;;;;;8.00;99.90;;;;;;8379607;28;19955;-70
2022/01/04 13:41:41;;;;;;;;;;;7.90;99.90;;;;;;8382964;28;20394;-70
2022/01/04 13:45:56;;;;;;;;;;;7.80;99.90;;;;;;8382722;28;19935;-70
2022/01/04 13:50:13;;;;;;;;;;;7.80;99.90;;;;;;8399645;28;19928;-70
2022/01/04 13:54:18;;;;;;;;;;;7.70;99.90;;;;;;8396053;28;19920;-70
2022/01/04 13:58:35;;;;;;;;;;;7.50;99.90;;;;;;8398658;28;19919;-70
2022/01/04 14:02:36;;;;;;;;;;;7.60;99.90;;;;;;8392264;28;19924;-70
2022/01/04 14:06:38;;;;;;;;;;;7.50;99.90;;;;;;8398100;28;19938;-70
2022/01/04 14:11:02;;;;;;;;;;;7.50;99.90;;;;;;8402755;28;19924;-70
2022/01/04 14:15:07;;;;;;;;;;;7.50;99.90;;;;;;8397834;28;19935;-71
2022/01/04 14:19:13;;;;;;;;;;;7.60;99.90;;;;;;8404119;28;19966;-70
2022/01/04 14:23:31;;;;;;;;;;;7.70;99.90;;;;;;8397818;28;19932;-71
2022/01/04 14:27:36;;;;;;;;;;;7.70;99.90;;;;;;8397388;28;19960;-71
2022/01/04 14:31:37;;;;;;;;;;;7.70;99.90;;;;;;8381891;28;19940;-71
2022/01/04 14:35:39;;;;;;;;;;;7.70;99.90;;;;;;8386989;28;19932;-70
2022/01/04 14:39:41;;;;;;;;;;;7.70;99.90;;;;;;8366214;28;19924;-70
2022/01/04 14:43:42;;;;;;;;;;;7.60;99.90;;;;;;8384196;28;19928;-71
2022/01/04 14:47:45;;;;;;;;;;;7.60;99.90;;;;;;8399357;28;20312;-70
2022/01/04 14:51:47;;;;;;;;;;;7.50;99.90;;;;;;8402309;28;19966;-71
2022/01/04 14:55:48;;;;;;;;;;;7.60;99.90;;;;;;8368010;28;20019;-71
2022/01/04 15:00:04;;;;;;;;;;;7.50;99.90;;;;;;8383023;28;19967;-70
2022/01/04 15:04:06;;;;;;;;;;;7.50;99.90;;;;;;8372113;28;19986;-70
2022/01/04 15:08:08;;;;;;;;;;;7.50;99.90;;;;;;8382274;28;20375;-70
2022/01/04 15:12:09;;;;;;;;;;;7.40;99.90;;;;;;8383165;28;19924;-70
2022/01/04 15:16:11;;;;;;;;;;;7.30;99.90;;;;;;8387440;28;20371;-70
2022/01/04 15:20:13;;;;;;;;;;;7.30;99.90;;;;;;8388070;28;19927;-70
2022/01/04 15:24:15;;;;;;;;;;;7.30;99.90;;;;;;8387351;28;19924;-70
2022/01/04 15:28:16;;;;;;;;;;;7.30;99.90;;;;;;8387780;28;19920;-70
2022/01/04 15:32:18;;;;;;;;;;;7.30;99.90;;;;;;8393069;28;19963;-70
2022/01/04 15:36:19;;;;;;;;;;;7.30;99.90;;;;;;8389947;28;19971;-70
2022/01/04 15:40:21;;;;;;;;;;;7.30;99.90;;;;;;8390780;28;19921;-70
2022/01/04 15:44:23;;;;;;;;;;;7.30;99.90;;;;;;8389617;28;20050;-71
2022/01/04 15:48:25;;;;;;;;;;;7.20;99.90;;;;;;8390004;28;20403;-70
2022/01/04 15:52:26;;;;;;;;;;;7.20;99.90;;;;;;8390134;28;19927;-70
2022/01/04 15:56:28;;;;;;;;;;;7.20;99.90;;;;;;8391860;28;20055;-71
2022/01/04 16:00:29;;;;;;;;;;;7.20;99.90;;;;;;8382552;28;19963;-71
2022/01/04 16:04:31;;;;;;;;;;;7.20;99.90;;;;;;8369744;28;19931;-70
2022/01/04 16:08:33;;;;;;;;;;;7.10;99.90;;;;;;8385860;28;20344;-71
2022/01/04 16:12:34;;;;;;;;;;;7.10;99.90;;;;;;8390053;28;19928;-70
2022/01/04 16:16:44;;;;;;;;;;;7.10;99.90;;;;;;8375220;28;19947;-70
2022/01/04 16:25:07;;;;;;;;;;;7.10;99.90;;;;;;8385941;28;19920;-70
2022/01/04 16:29:10;;;;;;;;;;;7.10;99.90;;;;;;8376617;28;19931;-70
2022/01/04 16:33:11;;;;;;;;;;;7.10;99.90;;;;;;8378528;28;19986;-70
2022/01/04 16:37:13;;;;;;;;;;;7.00;99.90;;;;;;8372526;28;19931;-71
2022/01/04 16:41:14;;;;;;;;;;;7.00;99.90;;;;;;8366960;28;20038;-70
2022/01/04 16:45:16;;;;;;;;;;;7.00;99.90;;;;;;8380634;28;19967;-70
2022/01/04 16:49:19;;;;;;;;;;;7.00;99.90;;;;;;8385787;28;19920;-70
2022/01/04 16:53:21;;;;;;;;;;;7.00;99.90;;;;;;8383983;28;19920;-70
2022/01/04 16:57:22;;;;;;;;;;;7.00;99.90;;;;;;8387712;28;19920;-70
2022/01/04 17:01:26;;;;;;;;;;;7.00;99.90;;;;;;8384301;28;19963;-70
2022/01/04 17:05:28;;;;;;;;;;;6.90;99.90;;;;;;8385077;28;19974;-71
2022/01/04 17:09:36;;;;;;;;;;;6.90;99.90;;;;;;8387870;28;19928;-70
2022/01/04 17:17:59;;;;;;;;;;;6.90;99.90;;;;;;8392297;28;20420;-70
2022/01/04 17:22:00;;;;;;;;;;;6.90;99.90;;;;;;8392040;28;20421;-70
2022/01/04 17:26:20;;;;;;;;;;;6.90;99.90;;;;;;8386008;28;20360;-70
2022/01/04 17:30:24;;;;;;;;;;;6.80;99.90;;;;;;8386298;28;19955;-70
2022/01/04 17:34:25;;;;;;;;;;;6.80;99.90;;;;;;8388130;28;19936;-70
2022/01/04 17:38:27;;;;;;;;;;;6.80;99.90;;;;;;8386098;28;20311;-70
2022/01/04 17:42:29;;;;;;;;;;;6.80;99.90;;;;;;8379748;28;19939;-70
2022/01/04 17:46:30;;;;;;;;;;;6.80;99.90;;;;;;8381870;28;20015;-70
2022/01/04 17:50:33;;;;;;;;;;;6.80;99.90;;;;;;8372061;28;20358;-71
2022/01/04 17:54:34;;;;;;;;;;;6.80;99.90;;;;;;8361612;28;20360;-70
2022/01/04 17:58:36;;;;;;;;;;;6.80;99.90;;;;;;8380078;28;19928;-70
2022/01/04 18:02:39;;;;;;;;;;;6.80;99.90;;;;;;8379888;28;19928;-70
2022/01/04 18:06:40;;;;;;;;;;;6.70;99.90;;;;;;8381509;28;20331;-70
2022/01/04 18:10:42;;;;;;;;;;;6.80;99.90;;;;;;8373107;28;19975;-70
2022/01/04 18:14:47;;;;;;;;;;;6.70;99.90;;;;;;8399011;28;19993;-70
2022/01/04 18:18:48;;;;;;;;;;;6.70;99.90;;;;;;8384010;28;20066;-71
2022/01/04 18:22:50;;;;;;;;;;;6.60;99.90;;;;;;8394621;28;19924;-70
2022/01/04 18:26:52;;;;;;;;;;;6.60;99.90;;;;;;8384603;28;19928;-70
2022/01/04 18:30:54;;;;;;;;;;;6.60;99.90;;;;;;8380974;28;19920;-70
2022/01/04 18:34:56;;;;;;;;;;;6.50;99.90;;;;;;8385609;28;20334;-70
2022/01/04 18:38:57;;;;;;;;;;;6.50;99.90;;;;;;8373275;28;19931;-70
2022/01/04 18:42:59;;;;;;;;;;;6.50;99.90;;;;;;8389845;28;19921;-70
2022/01/04 18:47:01;;;;;;;;;;;6.50;99.90;;;;;;8391211;28;19960;-70
2022/01/04 18:51:02;;;;;;;;;;;6.40;99.90;;;;;;8394216;28;19920;-70
2022/01/04 18:55:04;;;;;;;;;;;6.40;99.90;;;;;;8385075;28;20380;-70
2022/01/04 18:59:06;;;;;;;;;;;6.30;99.90;;;;;;8404323;28;19931;-71
2022/01/04 19:03:08;;;;;;;;;;;6.30;99.90;;;;;;8389304;28;20011;-70
2022/01/04 19:07:10;;;;;;;;;;;6.30;99.90;;;;;;8392267;28;20460;-70
2022/01/04 19:11:11;;;;;;;;;;;6.30;99.90;;;;;;8385051;28;19947;-71
2022/01/04 19:15:13;;;;;;;;;;;6.20;99.90;;;;;;8388403;28;20402;-70
2022/01/04 19:19:15;;;;;;;;;;;6.00;99.90;;;;;;8390977;28;19951;-70
2022/01/04 19:23:16;;;;;;;;;;;5.90;99.90;;;;;;8377750;28;20046;-70
2022/01/04 19:27:18;;;;;;;;;;;5.70;99.90;;;;;;8389698;28;19924;-70
2022/01/04 19:31:24;;;;;;;;;;;5.60;99.90;;;;;;8393951;28;20398;-70
2022/01/04 19:39:46;;;;;;;;;;;5.50;99.90;;;;;;8391513;28;20335;-70
2022/01/04 19:43:48;;;;;;;;;;;5.50;99.90;;;;;;8378410;28;19920;-70
2022/01/04 19:47:50;;;;;;;;;;;5.50;99.90;;;;;;8390975;28;19924;-70
2022/01/04 19:51:51;;;;;;;;;;;5.50;99.90;;;;;;8384991;28;20410;-70
2022/01/04 19:55:53;;;;;;;;;;;5.50;99.90;;;;;;8391315;28;19935;-71
2022/01/04 19:59:55;;;;;;;;;;;5.50;99.90;;;;;;8373787;28;19920;-70
2022/01/04 20:03:56;;;;;;;;;;;5.50;99.90;;;;;;8388759;28;20031;-71
2022/01/04 20:07:58;;;;;;;;;;;5.50;99.90;;;;;;8388491;28;20603;-70
2022/01/04 20:12:00;;;;;;;;;;;5.50;99.90;;;;;;8392687;28;20296;-70
2022/01/04 20:16:01;;;;;;;;;;;5.50;99.90;;;;;;8387847;28;20022;-71
2022/01/04 20:20:07;;;;;;;;;;;5.50;99.90;;;;;;8389145;28;19932;-70
2022/01/04 20:24:08;;;;;;;;;;;5.60;99.90;;;;;;8385856;28;19932;-71
2022/01/04 20:28:10;;;;;;;;;;;5.60;99.90;;;;;;8384014;28;19932;-70
2022/01/04 20:32:12;;;;;;;;;;;5.50;99.90;;;;;;8387986;28;19951;-70
2022/01/04 20:36:33;;;;;;;;;;;5.60;99.90;;;;;;8386727;28;19946;-70
2022/01/04 20:40:36;;;;;;;;;;;5.60;99.90;;;;;;8379289;28;20065;-70
2022/01/04 20:44:38;;;;;;;;;;;5.60;99.90;;;;;;8386625;28;19920;-70
2022/01/04 20:48:40;;;;;;;;;;;5.50;99.90;;;;;;8390201;28;20422;-71
2022/01/04 20:52:43;;;;;;;;;;;5.40;99.90;;;;;;8398892;28;20007;-71
2022/01/04 20:56:45;;;;;;;;;;;5.40;99.90;;;;;;8387044;28;20359;-70
2022/01/04 21:00:48;;;;;;;;;;;5.40;99.90;;;;;;8385845;28;19963;-71
2022/01/04 21:04:50;;;;;;;;;;;5.40;99.90;;;;;;8373721;28;19972;-70
2022/01/04 21:08:51;;;;;;;;;;;5.40;99.90;;;;;;8389144;28;19927;-71
2022/01/04 21:12:53;;;;;;;;;;;5.40;99.90;;;;;;8387131;28;19998;-70
2022/01/04 21:16:55;;;;;;;;;;;5.40;99.90;;;;;;8373973;28;20427;-70
2022/01/04 21:20:56;;;;;;;;;;;5.40;99.90;;;;;;8388734;28;19923;-70
2022/01/04 21:24:58;;;;;;;;;;;5.40;99.90;;;;;;8390080;28;19928;-70
2022/01/04 21:29:00;;;;;;;;;;;5.30;99.90;;;;;;8388074;28;19960;-70
2022/01/04 21:33:01;;;;;;;;;;;5.30;99.90;;;;;;8369354;28;19928;-70
2022/01/04 21:37:06;;;;;;;;;;;5.20;99.90;;;;;;8382008;28;20583;-70
2022/01/04 21:41:08;;;;;;;;;;;5.10;99.90;;;;;;8385338;28;20024;-70
2022/01/04 21:45:10;;;;;;;;;;;5.10;99.90;;;;;;8399191;28;19939;-69
2022/01/04 21:49:14;;;;;;;;;;;5.00;99.90;;;;;;8389931;28;20260;-71
2022/01/04 21:53:18;;;;;;;;;;;4.90;99.90;;;;;;8398479;28;21311;-70
2022/01/04 21:57:19;;;;;;;;;;;4.90;99.90;;;;;;8392735;28;19940;-70
2022/01/04 22:01:23;;;;;;;;;;;4.80;99.90;;;;;;8398563;28;19924;-70
2022/01/04 22:05:26;;;;;;;;;;;4.70;99.90;;;;;;8403216;28;19928;-70
2022/01/04 22:09:28;;;;;;;;;;;4.70;99.90;;;;;;8417222;28;20425;-70
2022/01/04 22:13:49;;;;;;;;;;;4.60;99.90;;;;;;8405188;28;19924;-70
2022/01/04 22:17:53;;;;;;;;;;;4.50;99.90;;;;;;8393235;28;19928;-70
2022/01/04 22:21:55;;;;;;;;;;;4.50;99.90;;;;;;8405494;28;19993;-70
2022/01/04 22:25:58;;;;;;;;;;;4.50;99.90;;;;;;8401268;28;20311;-70
2022/01/04 22:30:01;;;;;;;;;;;4.40;99.90;;;;;;8394384;28;19929;-70
2022/01/04 22:34:03;;;;;;;;;;;4.40;99.90;;;;;;8403782;28;20366;-70
2022/01/04 22:38:04;;;;;;;;;;;4.40;99.90;;;;;;8389561;28;19956;-70
2022/01/04 22:42:06;;;;;;;;;;;4.30;99.90;;;;;;8387723;28;19929;-70
2022/01/04 22:46:08;;;;;;;;;;;4.30;99.90;;;;;;8386535;28;19925;-70
2022/01/04 22:50:10;;;;;;;;;;;4.30;99.90;;;;;;8395757;28;19928;-70
2022/01/04 22:54:12;;;;;;;;;;;4.20;99.90;;;;;;8398277;28;19935;-70
2022/01/04 22:58:13;;;;;;;;;;;4.20;99.90;;;;;;8383386;28;19932;-70
2022/01/04 23:02:15;;;;;;;;;;;4.20;99.90;;;;;;8387857;28;19924;-70
2022/01/04 23:06:17;;;;;;;;;;;4.20;99.90;;;;;;8387012;28;19932;-71
2022/01/04 23:10:19;;;;;;;;;;;4.10;99.90;;;;;;8405304;28;20396;-70
2022/01/04 23:14:20;;;;;;;;;;;4.00;99.90;;;;;;8408543;28;20380;-70
2022/01/04 23:18:23;;;;;;;;;;;4.00;99.90;;;;;;8402107;28;19943;-70
2022/01/04 23:22:25;;;;;;;;;;;3.90;99.90;;;;;;8400065;28;19986;-70
2022/01/04 23:26:26;;;;;;;;;;;3.90;99.90;;;;;;8400080;28;19931;-70
2022/01/04 23:30:28;;;;;;;;;;;3.80;99.90;;;;;;8419245;28;20295;-70
2022/01/04 23:34:30;;;;;;;;;;;3.80;99.90;;;;;;8394317;28;19964;-70
2022/01/04 23:38:32;;;;;;;;;;;3.70;99.90;;;;;;8412486;28;19924;-71
2022/01/04 23:42:33;;;;;;;;;;;3.60;99.90;;;;;;8394410;28;19924;-70
2022/01/04 23:46:35;;;;;;;;;;;3.60;99.90;;;;;;8420603;28;19975;-70
2022/01/04 23:50:37;;;;;;;;;;;3.60;99.90;;;;;;8426101;28;19928;-70
2022/01/04 23:54:38;;;;;;;;;;;3.60;99.90;;;;;;8423755;28;19934;-70
2022/01/04 23:58:40;;;;;;;;;;;3.60;99.90;;;;;;8412118;28;19928;-70
